Time;durP1;ratioP1;P1;durP2;ratioP2;P2;SDS_P1;SDS_P2;PMS_P1;PMS_P2;Temp;Humidity;BMP_temperature;BMP_pressure;BME280_temperature;BME280_humidity;BME280_pressure;Samples;Min_cycle;Max_cycle;Signal;HPM_P1;HPM_P2
2023/08/03 00:00:26;;;;;;;;;;;;;;;27.68;53.14;100687.97;5099529;28;19934;-88
2023/08/03 00:02:51;;;;;;;;;;;;;;;27.64;53.47;100695.16;5079787;28;19975;-87
2023/08/03 00:05:19;;;;;;;;;;;;;;;27.66;53.30;100687.09;5092895;28;19923;-87
2023/08/03 00:07:45;;;;;;;;;;;;;;;27.66;53.45;100685.28;5089592;28;19919;-88
2023/08/03 00:10:10;;;;;;;;;;;;;;;27.67;53.20;100686.22;5099261;28;19912;-88
2023/08/03 00:12:36;;;;;;;;;;;;;;;27.64;53.54;100688.94;5091859;28;19916;-88
2023/08/03 00:15:01;;;;;;;;;;;;;;;27.67;53.25;100688.91;5095492;28;19912;-88
2023/08/03 00:17:27;;;;;;;;;;;;;;;27.65;53.26;100680.88;5098758;28;20301;-89
2023/08/03 00:19:52;;;;;;;;;;;;;;;27.65;53.67;100674.63;5079856;28;19911;-88
2023/08/03 00:22:18;;;;;;;;;;;;;;;27.64;53.32;100671.03;5088987;28;19908;-88
2023/08/03 00:24:43;;;;;;;;;;;;;;;27.64;53.67;100668.34;5089141;28;20286;-91
2023/08/03 00:27:09;;;;;;;;;;;;;;;27.64;53.52;100672.84;5092580;28;19980;-89
2023/08/03 00:29:34;;;;;;;;;;;;;;;27.63;53.55;100679.13;5101168;28;19912;-89
2023/08/03 00:32:00;;;;;;;;;;;;;;;27.62;53.41;100678.22;5073460;28;19912;-89
2023/08/03 00:34:32;;;;;;;;;;;;;;;27.64;53.81;100678.19;5074505;28;19916;-90
2023/08/03 00:36:57;;;;;;;;;;;;;;;27.61;53.67;100690.75;5084536;28;20286;-89
2023/08/03 00:39:23;;;;;;;;;;;;;;;27.61;53.73;100690.75;5076446;28;19922;-88
2023/08/03 00:41:49;;;;;;;;;;;;;;;27.60;53.95;100683.63;5076727;28;19912;-88
2023/08/03 00:44:14;;;;;;;;;;;;;;;27.60;53.82;100683.63;5077801;28;19962;-89
2023/08/03 00:46:39;;;;;;;;;;;;;;;27.61;53.87;100688.06;5096242;28;20320;-88
2023/08/03 00:49:05;;;;;;;;;;;;;;;27.59;53.95;100676.47;5105613;28;20362;-89
2023/08/03 00:51:30;;;;;;;;;;;;;;;27.60;53.77;100686.31;5094161;28;19908;-89
2023/08/03 00:53:59;;;;;;;;;;;;;;;27.60;53.86;100677.34;5077425;28;19915;-87
2023/08/03 00:56:24;;;;;;;;;;;;;;;27.61;53.76;100687.19;5104035;28;19912;-88
2023/08/03 00:58:50;;;;;;;;;;;;;;;27.60;54.05;100682.72;5083146;28;19988;-89
2023/08/03 01:01:15;;;;;;;;;;;;;;;27.59;53.85;100681.84;5100901;28;20361;-89
2023/08/03 01:03:41;;;;;;;;;;;;;;;27.59;54.25;100681.84;5077115;28;20273;-88
2023/08/03 01:06:06;;;;;;;;;;;;;;;27.59;53.90;100675.59;5104560;28;19911;-87
2023/08/03 01:08:32;;;;;;;;;;;;;;;27.58;54.21;100673.81;5095384;28;20030;-88
2023/08/03 01:10:57;;;;;;;;;;;;;;;27.58;53.94;100679.19;5076841;28;20278;-89
2023/08/03 01:13:22;;;;;;;;;;;;;;;27.57;54.14;100682.78;5076138;28;20305;-89
2023/08/03 01:15:48;;;;;;;;;;;;;;;27.56;54.04;100684.59;5101265;28;19918;-89
2023/08/03 01:18:14;;;;;;;;;;;;;;;27.56;54.13;100683.72;5108398;28;19916;-89
2023/08/03 01:20:40;;;;;;;;;;;;;;;27.55;54.08;100688.16;5076200;28;19919;-88
2023/08/03 01:23:05;;;;;;;;;;;;;;;27.55;53.94;100696.22;5081354;28;19908;-89
2023/08/03 01:25:34;;;;;;;;;;;;;;;27.56;54.40;100700.69;5092338;28;19919;-90
2023/08/03 01:28:04;;;;;;;;;;;;;;;27.55;54.08;100698.03;5094701;28;20448;-90
2023/08/03 01:30:29;;;;;;;;;;;;;;;27.54;54.37;100702.50;5080272;28;19922;-89
2023/08/03 01:32:56;;;;;;;;;;;;;;;27.53;54.50;100695.34;5086094;28;19912;-88
2023/08/03 01:35:21;;;;;;;;;;;;;;;27.53;54.51;100694.47;5097114;28;20006;-89
2023/08/03 01:37:47;;;;;;;;;;;;;;;27.52;54.90;100698.09;5096003;28;19994;-90
2023/08/03 01:40:13;;;;;;;;;;;;;;;27.53;54.86;100699.84;5094880;28;19912;-89
2023/08/03 01:42:38;;;;;;;;;;;;;;;27.52;54.46;100700.78;5079942;28;19908;-89
2023/08/03 01:45:05;;;;;;;;;;;;;;;27.52;54.50;100695.41;5100625;27;19947;-88
2023/08/03 01:47:32;;;;;;;;;;;;;;;27.52;54.71;100698.09;5081676;28;19919;-89
2023/08/03 01:49:57;;;;;;;;;;;;;;;27.51;54.90;100690.94;5095087;28;19934;-87
2023/08/03 01:52:29;;;;;;;;;;;;;;;27.51;54.87;100691.81;5102683;27;20368;-90
2023/08/03 01:54:58;;;;;;;;;;;;;;;27.51;54.78;100690.94;5096377;27;20002;-88
2023/08/03 01:57:24;;;;;;;;;;;;;;;27.50;54.74;100694.56;5102888;28;20010;-88
2023/08/03 01:59:49;;;;;;;;;;;;;;;27.50;54.69;100698.13;5102565;27;20002;-88
2023/08/03 02:02:15;;;;;;;;;;;;;;;27.49;54.71;100698.13;5109992;28;20357;-87
2023/08/03 02:04:40;;;;;;;;;;;;;;;27.49;54.86;100698.13;5089296;27;20398;-88
2023/08/03 02:07:12;;;;;;;;;;;;;;;27.48;54.82;100701.75;5108604;28;19919;-88
2023/08/03 02:09:38;;;;;;;;;;;;;;;27.50;54.77;100705.28;5094604;27;19954;-87
2023/08/03 02:12:03;;;;;;;;;;;;;;;27.50;54.65;100707.97;5095818;28;19957;-87
2023/08/03 02:14:28;;;;;;;;;;;;;;;27.47;54.93;100706.19;5095215;28;20163;-88
2023/08/03 02:16:54;;;;;;;;;;;;;;;27.46;54.97;100706.25;5110862;27;19927;-87
2023/08/03 02:19:19;;;;;;;;;;;;;;;27.45;54.86;100712.50;5098887;27;20400;-87
2023/08/03 02:21:48;;;;;;;;;;;;;;;27.45;54.84;100715.19;5123021;27;20375;-87
2023/08/03 02:24:16;;;;;;;;;;;;;;;27.45;54.88;100721.41;5078920;28;19908;-89
2023/08/03 02:26:41;;;;;;;;;;;;;;;27.44;55.04;100719.66;5118101;27;20018;-88
2023/08/03 02:29:07;;;;;;;;;;;;;;;27.42;54.72;100722.38;5096808;27;20354;-88
2023/08/03 02:31:33;;;;;;;;;;;;;;;27.41;55.02;100719.69;5097710;28;20482;-88
2023/08/03 02:34:01;;;;;;;;;;;;;;;27.41;54.99;100728.66;5101539;27;19911;-87
2023/08/03 02:36:36;;;;;;;;;;;;;;;27.41;54.90;100723.28;5095143;28;19957;-87
2023/08/03 02:39:01;;;;;;;;;;;;;;;27.40;55.06;100729.56;5080503;27;19958;-87
2023/08/03 02:41:26;;;;;;;;;;;;;;;27.40;55.31;100729.56;5095640;27;20476;-87
2023/08/03 02:43:52;;;;;;;;;;;;;;;27.42;55.03;100730.41;5094104;28;19916;-90
2023/08/03 02:46:17;;;;;;;;;;;;;;;27.41;54.83;100725.06;5101829;28;19941;-88
2023/08/03 02:48:43;;;;;;;;;;;;;;;27.40;55.13;100728.66;5087717;28;20404;-88
2023/08/03 02:51:09;;;;;;;;;;;;;;;27.38;55.07;100731.38;5085992;28;19935;-88
2023/08/03 02:53:36;;;;;;;;;;;;;;;27.39;55.23;100729.59;5095105;28;20006;-88
2023/08/03 02:56:01;;;;;;;;;;;;;;;27.38;55.27;100727.81;5106124;28;19911;-88
2023/08/03 02:58:27;;;;;;;;;;;;;;;27.38;55.06;100735.84;5093609;28;19984;-87
2023/08/03 03:00:52;;;;;;;;;;;;;;;27.38;55.23;100728.69;5075555;28;20335;-88
2023/08/03 03:03:17;;;;;;;;;;;;;;;27.39;55.28;100732.28;5094744;28;19924;-87
2023/08/03 03:05:43;;;;;;;;;;;;;;;27.37;55.19;100729.63;5098034;28;19934;-88
2023/08/03 03:08:08;;;;;;;;;;;;;;;27.37;55.03;100726.06;5094662;28;20359;-88
2023/08/03 03:10:34;;;;;;;;;;;;;;;27.37;55.28;100723.38;5100599;28;20366;-88
2023/08/03 03:12:59;;;;;;;;;;;;;;;27.38;55.19;100730.50;5094348;28;19916;-88
2023/08/03 03:15:25;;;;;;;;;;;;;;;27.35;55.16;100739.47;5102476;28;20300;-87
2023/08/03 03:17:50;;;;;;;;;;;;;;;27.37;55.26;100739.47;5093836;28;19912;-89
2023/08/03 03:20:16;;;;;;;;;;;;;;;27.36;55.09;100741.22;5094977;28;20324;-87
2023/08/03 03:22:41;;;;;;;;;;;;;;;27.36;55.00;100740.34;5092850;28;20424;-87
2023/08/03 03:25:07;;;;;;;;;;;;;;;27.35;55.00;100744.84;5104245;28;19919;-88
2023/08/03 03:27:32;;;;;;;;;;;;;;;27.33;54.99;100743.97;5098691;28;19918;-89
2023/08/03 03:29:57;;;;;;;;;;;;;;;27.33;55.42;100738.63;5096829;28;19916;-89
2023/08/03 03:32:23;;;;;;;;;;;;;;;27.33;55.37;100740.41;5092137;28;19918;-86
2023/08/03 03:34:48;;;;;;;;;;;;;;;27.31;55.25;100743.13;5095064;28;20431;-87
2023/08/03 03:37:14;;;;;;;;;;;;;;;27.33;55.05;100748.47;5107188;28;19922;-88
2023/08/03 03:39:42;;;;;;;;;;;;;;;27.34;55.31;100752.91;5099452;28;20362;-86
2023/08/03 03:42:07;;;;;;;;;;;;;;;27.32;55.12;100749.34;5092051;28;19993;-88
2023/08/03 03:44:33;;;;;;;;;;;;;;;27.32;55.35;100749.34;5104583;28;19916;-88
2023/08/03 03:46:58;;;;;;;;;;;;;;;27.31;55.16;100748.47;5096814;28;19985;-87
2023/08/03 03:49:23;;;;;;;;;;;;;;;27.31;55.01;100744.91;5099906;27;19915;-87
2023/08/03 03:51:49;;;;;;;;;;;;;;;27.32;55.29;100749.34;5095628;28;20003;-87
2023/08/03 03:54:14;;;;;;;;;;;;;;;27.31;55.33;100747.59;5095342;28;19999;-87
2023/08/03 03:56:40;;;;;;;;;;;;;;;27.30;54.98;100753.84;5101281;27;20350;-85
2023/08/03 03:59:05;;;;;;;;;;;;;;;27.29;55.33;100752.09;5093652;28;19916;-86
2023/08/03 04:01:31;;;;;;;;;;;;;;;27.28;54.99;100761.91;5092644;28;19963;-84
2023/08/03 04:03:56;;;;;;;;;;;;;;;27.29;55.10;100754.78;5100113;28;19912;-85
2023/08/03 04:06:22;;;;;;;;;;;;;;;27.28;55.21;100761.91;5099487;28;19916;-85
2023/08/03 04:08:47;;;;;;;;;;;;;;;27.27;55.10;100761.97;5091770;28;19912;-85
2023/08/03 04:11:12;;;;;;;;;;;;;;;27.27;55.15;100773.56;5099965;28;19908;-86
2023/08/03 04:13:38;;;;;;;;;;;;;;;27.28;55.28;100774.44;5090894;28;20361;-85
2023/08/03 04:16:03;;;;;;;;;;;;;;;27.27;55.08;100778.06;5091386;28;20296;-85
2023/08/03 04:18:29;;;;;;;;;;;;;;;27.27;55.49;100780.72;5096705;28;19930;-86
2023/08/03 04:20:54;;;;;;;;;;;;;;;27.28;55.12;100775.31;5094800;28;19912;-86
2023/08/03 04:23:20;;;;;;;;;;;;;;;27.26;55.26;100779.81;5106602;28;20404;-87
2023/08/03 04:25:45;;;;;;;;;;;;;;;27.27;55.41;100772.69;5099324;28;20343;-85
2023/08/03 04:28:10;;;;;;;;;;;;;;;27.26;55.03;100777.13;5100716;28;19919;-85
2023/08/03 04:30:38;;;;;;;;;;;;;;;27.25;55.18;100779.88;5100757;28;19994;-88
2023/08/03 04:33:03;;;;;;;;;;;;;;;27.25;55.22;100786.09;5105092;28;19908;-87
2023/08/03 04:35:29;;;;;;;;;;;;;;;27.25;55.28;100780.75;5098329;28;20316;-88
2023/08/03 04:37:54;;;;;;;;;;;;;;;27.25;55.39;100782.53;5119979;27;19977;-85
2023/08/03 04:40:20;;;;;;;;;;;;;;;27.23;55.00;100782.56;5095024;28;19916;-87
2023/08/03 04:42:45;;;;;;;;;;;;;;;27.24;55.08;100787.00;5079215;28;19915;-86
2023/08/03 04:45:11;;;;;;;;;;;;;;;27.26;55.26;100792.34;5105301;28;20069;-87
2023/08/03 04:47:38;;;;;;;;;;;;;;;27.23;55.16;100792.41;5104118;28;19911;-87
2023/08/03 04:50:03;;;;;;;;;;;;;;;27.23;55.21;100793.28;5115625;27;20008;-86
2023/08/03 04:52:29;;;;;;;;;;;;;;;27.24;55.21;100788.81;5129032;27;19961;-86
2023/08/03 04:54:54;;;;;;;;;;;;;;;27.25;55.39;100788.78;5120650;27;19911;-86
2023/08/03 04:57:19;;;;;;;;;;;;;;;27.24;55.44;100787.00;5101584;28;19963;-87
2023/08/03 04:59:45;;;;;;;;;;;;;;;27.25;55.57;100794.16;5107775;27;19958;-87
2023/08/03 05:02:10;;;;;;;;;;;;;;;27.24;55.12;100797.72;5118362;27;19915;-87
2023/08/03 05:04:36;;;;;;;;;;;;;;;27.26;55.42;100797.72;5097944;28;19975;-87
2023/08/03 05:07:02;;;;;;;;;;;;;;;27.24;55.21;100805.78;5101349;28;19912;-87
2023/08/03 05:09:33;;;;;;;;;;;;;;;27.25;55.33;100812.91;5108845;27;19923;-86
2023/08/03 05:12:00;;;;;;;;;;;;;;;27.25;55.29;100810.25;5108327;27;19918;-87
2023/08/03 05:14:25;;;;;;;;;;;;;;;27.24;55.26;100803.09;5108428;27;19911;-88
2023/08/03 05:16:51;;;;;;;;;;;;;;;27.25;55.32;100820.09;5110865;27;19932;-86
2023/08/03 05:19:16;;;;;;;;;;;;;;;27.24;55.30;100819.16;5102097;28;19916;-87
2023/08/03 05:21:43;;;;;;;;;;;;;;;27.15;54.91;100827.31;5101562;28;19912;-93
2023/08/03 05:24:21;;;;;;;;;;;;;;;27.12;56.63;100822.03;5123515;27;19908;-93
2023/08/03 05:26:49;;;;;;;;;;;;;;;26.99;57.44;100819.50;5085596;28;19912;-90
2023/08/03 05:29:15;;;;;;;;;;;;;;;27.13;57.10;100816.63;5105719;27;20364;-93
2023/08/03 05:31:53;;;;;;;;;;;;;;;27.17;57.16;100821.03;5089496;27;20006;-93
2023/08/03 05:34:18;;;;;;;;;;;;;;;27.02;57.50;100832.84;5106080;27;19918;-86
2023/08/03 05:36:46;;;;;;;;;;;;;;;27.13;55.30;100829.13;5096591;27;19911;-88
2023/08/03 05:39:14;;;;;;;;;;;;;;;27.21;55.14;100822.75;5122065;27;19923;-88
2023/08/03 05:41:40;;;;;;;;;;;;;;;27.09;54.70;100830.09;5088969;28;20048;-86
2023/08/03 05:44:07;;;;;;;;;;;;;;;27.25;52.98;100834.38;5097979;27;19912;-86
2023/08/03 05:46:38;;;;;;;;;;;;;;;27.20;52.87;100836.22;5104535;27;19988;-88
2023/08/03 05:49:09;;;;;;;;;;;;;;;27.26;51.69;100846.84;5091680;28;19912;-87
2023/08/03 05:51:36;;;;;;;;;;;;;;;27.37;50.91;100823.47;5099539;27;19916;-87
2023/08/03 05:54:02;;;;;;;;;;;;;;;27.48;50.59;100827.81;5090845;27;19988;-88
2023/08/03 05:56:30;;;;;;;;;;;;;;;27.57;50.06;100822.28;5097555;27;19923;-87
2023/08/03 05:58:56;;;;;;;;;;;;;;;27.53;49.73;100816.06;5099130;27;19916;-84
2023/08/03 06:01:22;;;;;;;;;;;;;;;27.55;49.61;100819.63;5103187;27;19915;-85
2023/08/03 06:03:48;;;;;;;;;;;;;;;27.71;49.08;100820.28;5123699;27;19953;-86
2023/08/03 06:06:15;;;;;;;;;;;;;;;27.76;48.71;100821.06;5104878;27;19915;-85
2023/08/03 06:08:50;;;;;;;;;;;;;;;27.77;48.41;100830.91;5104647;27;20361;-87
2023/08/03 06:11:37;;;;;;;;;;;;;;;27.88;47.99;100822.72;5097903;28;20472;-90
2023/08/03 06:14:13;;;;;;;;;;;;;;;27.82;48.01;100823.66;5108887;27;20290;-90
2023/08/03 06:16:57;;;;;;;;;;;;;;;27.80;48.00;100835.34;5098071;27;19918;-88
2023/08/03 06:19:30;;;;;;;;;;;;;;;28.00;47.70;100830.56;5098494;27;19919;-83
2023/08/03 06:22:07;;;;;;;;;;;;;;;27.93;47.48;100826.19;5104689;27;19912;-88
2023/08/03 06:24:53;;;;;;;;;;;;;;;27.90;48.10;100834.31;5106551;27;20430;-92
2023/08/03 06:27:25;;;;;;;;;;;;;;;28.03;48.39;100832.31;5101965;27;20430;-88
2023/08/03 06:29:54;;;;;;;;;;;;;;;28.11;47.95;100833.06;5117206;27;19911;-89
2023/08/03 06:32:24;;;;;;;;;;;;;;;28.12;47.41;100842.00;5089496;27;20376;-88
2023/08/03 06:35:03;;;;;;;;;;;;;;;28.11;47.52;100834.84;5115382;27;19947;-90
2023/08/03 06:37:55;;;;;;;;;;;;;;;28.06;47.52;100839.41;5124603;27;19921;-88
2023/08/03 06:40:20;;;;;;;;;;;;;;;28.12;47.23;100834.81;5109047;27;19959;-89
2023/08/03 06:42:48;;;;;;;;;;;;;;;28.19;47.00;100833.81;5104671;27;19946;-89
2023/08/03 06:45:29;;;;;;;;;;;;;;;28.21;47.03;100839.13;5100755;27;19915;-90
2023/08/03 06:47:58;;;;;;;;;;;;;;;28.16;46.87;100841.91;5106572;28;19916;-88
2023/08/03 06:50:34;;;;;;;;;;;;;;;28.07;46.86;100831.34;5113318;28;20403;-88
2023/08/03 06:53:02;;;;;;;;;;;;;;;28.20;46.69;100837.38;5101368;27;19954;-88
2023/08/03 06:55:49;;;;;;;;;;;;;;;28.17;46.65;100835.66;5095812;28;19969;-90
2023/08/03 06:58:17;;;;;;;;;;;;;;;28.19;46.63;100831.13;5105098;28;20028;-88
2023/08/03 07:00:44;;;;;;;;;;;;;;;28.27;46.33;100832.78;5097812;28;19969;-86
2023/08/03 07:03:11;;;;;;;;;;;;;;;28.27;46.39;100838.16;5091568;28;20387;-88
2023/08/03 07:05:37;;;;;;;;;;;;;;;28.23;46.40;100835.50;5090694;28;19916;-87
2023/08/03 07:08:03;;;;;;;;;;;;;;;28.24;46.26;100847.16;5097329;28;19967;-88
2023/08/03 07:10:30;;;;;;;;;;;;;;;28.35;45.83;100845.16;5098073;28;19912;-89
2023/08/03 07:13:05;;;;;;;;;;;;;;;28.22;45.96;100844.50;5099661;28;19993;-87
2023/08/03 07:15:34;;;;;;;;;;;;;;;28.28;46.09;100845.28;5103436;28;19916;-88
2023/08/03 07:18:01;;;;;;;;;;;;;;;28.20;45.92;100845.44;5085831;28;19912;-89
2023/08/03 07:20:26;;;;;;;;;;;;;;;28.22;46.05;100849.00;5101784;28;20304;-90
2023/08/03 07:22:52;;;;;;;;;;;;;;;28.30;45.66;100849.75;5095602;28;20022;-88
2023/08/03 07:25:17;;;;;;;;;;;;;;;28.26;45.73;100845.34;5097748;28;19916;-89
2023/08/03 07:27:44;;;;;;;;;;;;;;;28.25;45.82;100848.03;5090627;28;20011;-89
2023/08/03 07:30:09;;;;;;;;;;;;;;;28.29;45.73;100847.94;5100673;28;19977;-88
2023/08/03 07:32:35;;;;;;;;;;;;;;;28.38;45.28;100850.47;5094799;28;20466;-87
2023/08/03 07:35:00;;;;;;;;;;;;;;;28.40;45.44;100853.13;5075425;28;19911;-86
2023/08/03 07:37:26;;;;;;;;;;;;;;;28.37;45.55;100854.06;5093250;28;19966;-86
2023/08/03 07:39:51;;;;;;;;;;;;;;;28.37;45.33;100851.38;5105709;28;20399;-87
2023/08/03 07:42:17;;;;;;;;;;;;;;;28.41;45.27;100858.47;5093030;28;19916;-85
2023/08/03 07:44:42;;;;;;;;;;;;;;;28.38;45.83;100857.63;5097597;28;19912;-86
2023/08/03 07:47:08;;;;;;;;;;;;;;;28.42;46.03;100862.03;5104575;28;19930;-87
2023/08/03 07:49:33;;;;;;;;;;;;;;;28.43;45.68;100862.03;5101385;27;19912;-87
2023/08/03 07:51:59;;;;;;;;;;;;;;;28.38;45.60;100865.69;5093560;28;19912;-85
2023/08/03 07:54:24;;;;;;;;;;;;;;;28.42;45.44;100865.59;5082855;28;20381;-88
2023/08/03 07:56:50;;;;;;;;;;;;;;;28.30;45.67;100865.84;5091149;28;19911;-88
2023/08/03 07:59:15;;;;;;;;;;;;;;;28.49;45.29;100873.59;5078888;28;19979;-86
2023/08/03 08:01:43;;;;;;;;;;;;;;;28.51;45.13;100864.63;5098377;28;19920;-85
2023/08/03 08:04:09;;;;;;;;;;;;;;;28.39;45.44;100870.16;5096389;28;20010;-86
2023/08/03 08:06:34;;;;;;;;;;;;;;;28.54;45.08;100874.41;5095962;28;19954;-86
2023/08/03 08:08:59;;;;;;;;;;;;;;;28.46;45.17;100865.56;5100574;28;20591;-86
2023/08/03 08:11:25;;;;;;;;;;;;;;;28.48;44.67;100858.38;5105479;28;20369;-86
2023/08/03 08:13:50;;;;;;;;;;;;;;;28.36;45.10;100863.06;5115896;27;20407;-86
2023/08/03 08:16:16;;;;;;;;;;;;;;;28.31;45.22;100859.56;5113218;28;19964;-86
2023/08/03 08:18:44;;;;;;;;;;;;;;;28.35;44.93;100874.69;5102216;28;19919;-86
2023/08/03 08:21:11;;;;;;;;;;;;;;;28.46;44.65;100874.50;5095560;28;19911;-87
2023/08/03 08:23:37;;;;;;;;;;;;;;;28.60;44.15;100879.66;5102966;28;19912;-86
2023/08/03 08:26:08;;;;;;;;;;;;;;;28.51;44.44;100875.34;5082114;28;19922;-87
2023/08/03 08:28:34;;;;;;;;;;;;;;;28.47;44.31;100880.75;5110968;28;20010;-86
2023/08/03 08:30:59;;;;;;;;;;;;;;;28.45;44.33;100883.50;5103494;28;19954;-87
2023/08/03 08:33:25;;;;;;;;;;;;;;;28.26;44.15;100852.47;5094714;28;19907;-87
2023/08/03 08:35:50;;;;;;;;;;;;;;;28.49;44.13;100882.56;5113664;28;19920;-87
2023/08/03 08:38:16;;;;;;;;;;;;;;;28.50;44.12;100880.75;5092511;28;19923;-87
2023/08/03 08:40:42;;;;;;;;;;;;;;;28.46;44.21;100873.63;5088751;28;19912;-86
2023/08/03 08:43:07;;;;;;;;;;;;;;;28.49;44.34;100882.56;5108252;28;19980;-87
2023/08/03 08:45:33;;;;;;;;;;;;;;;28.53;44.15;100872.63;5084093;28;19924;-85
2023/08/03 08:47:59;;;;;;;;;;;;;;;28.55;44.18;100881.53;5118961;28;19916;-86
2023/08/03 08:50:24;;;;;;;;;;;;;;;28.60;43.81;100879.66;5126350;28;19919;-86
2023/08/03 08:52:50;;;;;;;;;;;;;;;28.50;44.20;100883.44;5114528;28;19918;-85
2023/08/03 08:55:17;;;;;;;;;;;;;;;28.53;44.09;100884.28;5104675;28;19907;-88
2023/08/03 08:57:43;;;;;;;;;;;;;;;28.55;43.67;100887.78;5120419;27;20327;-86
2023/08/03 09:00:08;;;;;;;;;;;;;;;28.63;43.94;100884.97;5104246;28;19912;-87
2023/08/03 09:02:34;;;;;;;;;;;;;;;28.65;43.82;100890.31;5098110;28;19917;-86
2023/08/03 09:05:09;;;;;;;;;;;;;;;28.66;43.80;100886.72;5101646;28;19914;-86
2023/08/03 09:07:36;;;;;;;;;;;;;;;28.57;43.80;100888.66;5124441;27;19961;-84
2023/08/03 09:10:01;;;;;;;;;;;;;;;28.60;43.90;100893.97;5097785;27;19976;-86
2023/08/03 09:12:27;;;;;;;;;;;;;;;28.73;43.30;100891.94;5105366;27;19908;-85
2023/08/03 09:14:53;;;;;;;;;;;;;;;28.61;43.73;100889.50;5102263;27;19928;-85
2023/08/03 09:17:22;;;;;;;;;;;;;;;28.57;43.57;100888.66;5098759;27;19911;-86
2023/08/03 09:19:48;;;;;;;;;;;;;;;28.56;43.72;100891.38;5100008;27;19919;-86
2023/08/03 09:22:13;;;;;;;;;;;;;;;28.64;43.56;100902.88;5102538;27;19997;-87
2023/08/03 09:24:39;;;;;;;;;;;;;;;28.75;43.19;100895.50;5107132;27;20373;-84
2023/08/03 09:27:04;;;;;;;;;;;;;;;28.67;43.42;100894.75;5116390;27;20532;-86
2023/08/03 09:29:30;;;;;;;;;;;;;;;28.66;43.37;100895.69;5133640;27;19911;-86
2023/08/03 09:32:01;;;;;;;;;;;;;;;28.69;43.27;100895.59;5107462;27;19907;-85
2023/08/03 09:34:36;;;;;;;;;;;;;;;28.68;43.29;100896.53;5115937;27;19919;-85
2023/08/03 09:37:06;;;;;;;;;;;;;;;28.73;43.20;100896.44;5091340;27;19922;-85
2023/08/03 09:39:34;;;;;;;;;;;;;;;28.69;43.45;100895.59;5125436;27;19915;-85
2023/08/03 09:42:03;;;;;;;;;;;;;;;28.81;43.40;100895.38;5100067;27;19918;-86
2023/08/03 09:44:29;;;;;;;;;;;;;;;28.76;43.23;100896.38;5096107;28;19915;-86
2023/08/03 09:46:55;;;;;;;;;;;;;;;28.72;43.41;100892.84;5095397;28;19915;-86
2023/08/03 09:49:20;;;;;;;;;;;;;;;28.72;43.51;100892.84;5099838;28;19916;-86
2023/08/03 09:51:46;;;;;;;;;;;;;;;28.81;43.49;100892.69;5114533;27;20297;-85
2023/08/03 09:54:19;;;;;;;;;;;;;;;28.80;43.16;100890.03;5086491;28;19919;-84
2023/08/03 09:56:52;;;;;;;;;;;;;;;28.77;43.51;100888.28;5115170;27;19922;-85
2023/08/03 09:59:23;;;;;;;;;;;;;;;28.74;43.42;100884.75;5102363;27;19982;-85
2023/08/03 10:01:49;;;;;;;;;;;;;;;28.87;43.12;100886.31;5104254;27;19911;-86
2023/08/03 10:04:33;;;;;;;;;;;;;;;28.87;43.09;100882.72;5112789;27;19973;-86
2023/08/03 10:07:20;;;;;;;;;;;;;;;28.88;43.18;100882.69;5110315;27;19907;-85
2023/08/03 10:09:50;;;;;;;;;;;;;;;28.88;42.99;100881.81;5101147;28;19917;-86
2023/08/03 10:12:35;;;;;;;;;;;;;;;28.84;42.86;100883.66;5083761;28;19950;-86
2023/08/03 10:15:01;;;;;;;;;;;;;;;28.86;42.83;100875.59;5113479;28;19911;-86
2023/08/03 10:17:27;;;;;;;;;;;;;;;28.90;42.72;100878.19;5095501;27;19923;-85
2023/08/03 10:19:53;;;;;;;;;;;;;;;28.86;42.95;100875.59;5114711;27;19918;-86
2023/08/03 10:22:19;;;;;;;;;;;;;;;28.92;42.94;100880.84;5133686;27;19918;-86
2023/08/03 10:25:04;;;;;;;;;;;;;;;28.92;42.55;100867.41;5102096;27;19916;-86
2023/08/03 10:27:32;;;;;;;;;;;;;;;28.91;42.57;100866.50;5114716;27;19912;-86
2023/08/03 10:29:57;;;;;;;;;;;;;;;28.96;42.50;100871.81;5110058;27;19912;-85
2023/08/03 10:32:27;;;;;;;;;;;;;;;28.94;42.50;100874.50;5094501;27;19922;-86
2023/08/03 10:34:56;;;;;;;;;;;;;;;28.95;42.41;100873.56;5096193;28;19915;-86
2023/08/03 10:37:22;;;;;;;;;;;;;;;28.95;42.54;100868.19;5123747;27;19912;-85
2023/08/03 10:39:48;;;;;;;;;;;;;;;28.94;42.40;100871.81;5105778;28;19947;-85
2023/08/03 10:42:17;;;;;;;;;;;;;;;28.99;42.87;100869.91;5116698;27;19961;-86
2023/08/03 10:44:45;;;;;;;;;;;;;;;28.96;42.77;100874.50;5095091;27;20410;-85
2023/08/03 10:47:20;;;;;;;;;;;;;;;28.98;42.53;100872.66;5119863;27;19923;-85
2023/08/03 10:49:48;;;;;;;;;;;;;;;29.08;42.19;100866.16;5095807;28;20426;-85
2023/08/03 10:52:30;;;;;;;;;;;;;;;29.02;42.29;100866.31;5095302;28;19914;-85
2023/08/03 10:55:30;;;;;;;;;;;;;;;29.17;42.32;100867.81;5110679;27;19915;-86
2023/08/03 10:58:07;;;;;;;;;;;;;;;29.07;42.35;100867.06;5067147;28;19981;-86
2023/08/03 11:00:32;;;;;;;;;;;;;;;29.10;42.37;100868.84;5056661;28;19916;-86
2023/08/03 11:02:57;;;;;;;;;;;;;;;29.09;42.25;100861.69;5119748;27;19930;-86
2023/08/03 11:05:24;;;;;;;;;;;;;;;29.11;42.31;100866.13;5101873;27;20303;-85
2023/08/03 11:07:50;;;;;;;;;;;;;;;29.12;42.08;100861.63;5112705;27;19941;-87
2023/08/03 11:10:15;;;;;;;;;;;;;;;29.11;42.33;100860.75;5118920;27;19911;-87
2023/08/03 11:12:42;;;;;;;;;;;;;;;29.10;42.40;100856.28;5097480;27;20304;-86
2023/08/03 11:15:07;;;;;;;;;;;;;;;29.15;42.11;100857.09;5111006;27;19950;-86
2023/08/03 11:17:33;;;;;;;;;;;;;;;29.14;42.33;100847.22;5100547;28;19954;-85
2023/08/03 11:20:00;;;;;;;;;;;;;;;29.17;42.47;100847.19;5133328;27;19938;-85
2023/08/03 11:22:26;;;;;;;;;;;;;;;29.27;42.19;100841.59;5092867;27;19912;-85
2023/08/03 11:24:54;;;;;;;;;;;;;;;29.23;42.14;100847.03;5098774;28;19930;-84
2023/08/03 11:27:19;;;;;;;;;;;;;;;29.25;42.31;100843.41;5109189;27;19961;-87
2023/08/03 11:29:45;;;;;;;;;;;;;;;29.22;42.18;100839.88;5127554;27;19911;-86
2023/08/03 11:32:11;;;;;;;;;;;;;;;29.28;42.22;100843.38;5105136;27;19915;-85
2023/08/03 11:34:37;;;;;;;;;;;;;;;29.31;41.95;100848.66;5109180;27;20624;-85
2023/08/03 11:37:03;;;;;;;;;;;;;;;29.29;42.34;100846.00;5116946;27;19915;-85
2023/08/03 11:39:29;;;;;;;;;;;;;;;29.31;42.10;100846.84;5107143;27;19916;-87
2023/08/03 11:41:54;;;;;;;;;;;;;;;29.26;42.19;100842.50;5113156;27;19912;-85
2023/08/03 11:44:21;;;;;;;;;;;;;;;29.32;42.24;100845.94;5107703;27;19908;-88
2023/08/03 11:46:49;;;;;;;;;;;;;;;29.34;41.94;100840.53;5109360;27;19915;-86
2023/08/03 11:49:18;;;;;;;;;;;;;;;29.38;41.90;100839.53;5126490;27;19919;-87
2023/08/03 11:51:46;;;;;;;;;;;;;;;29.37;41.63;100840.47;5118191;27;19912;-84
2023/08/03 11:54:21;;;;;;;;;;;;;;;29.37;41.87;100844.03;5105488;27;20320;-84
2023/08/03 11:56:46;;;;;;;;;;;;;;;29.37;41.74;100835.06;5105116;27;20002;-86
2023/08/03 11:59:12;;;;;;;;;;;;;;;29.37;41.81;100840.47;5122095;27;20374;-84
2023/08/03 12:01:45;;;;;;;;;;;;;;;29.40;41.59;100832.31;5126448;27;20374;-87
2023/08/03 12:04:15;;;;;;;;;;;;;;;29.39;41.53;100835.94;5109413;28;20393;-87
2023/08/03 12:06:44;;;;;;;;;;;;;;;29.42;41.59;100825.09;5091946;27;20451;-86
2023/08/03 12:09:09;;;;;;;;;;;;;;;29.43;41.47;100827.75;5104018;28;19912;-86
2023/08/03 12:11:34;;;;;;;;;;;;;;;29.38;41.60;100829.66;5096285;27;19911;-86
2023/08/03 12:14:00;;;;;;;;;;;;;;;29.44;41.70;100823.25;5096738;27;19915;-85
2023/08/03 12:16:25;;;;;;;;;;;;;;;29.48;41.55;100822.25;5109942;28;19920;-86
2023/08/03 12:18:51;;;;;;;;;;;;;;;29.50;41.55;100824.91;5130274;28;20401;-86
2023/08/03 12:21:16;;;;;;;;;;;;;;;29.50;41.77;100820.41;5092929;28;20006;-85
2023/08/03 12:23:42;;;;;;;;;;;;;;;29.58;41.20;100823.81;5127795;28;19915;-84
2023/08/03 12:26:07;;;;;;;;;;;;;;;29.48;41.49;100822.25;5126312;28;19912;-86
2023/08/03 12:28:33;;;;;;;;;;;;;;;29.52;41.57;100815.00;5125911;28;20440;-86
2023/08/03 12:31:00;;;;;;;;;;;;;;;29.52;41.31;100818.56;5128302;28;19997;-88
2023/08/03 12:33:25;;;;;;;;;;;;;;;29.51;41.53;100822.19;5087631;28;19922;-84
2023/08/03 12:36:09;;;;;;;;;;;;;;;29.51;41.46;100824.88;5122160;28;19915;-88